Аэропорт: Звартноц. Ереван

ICAO: UDYZ

METAR:
2020-08-09 23:00:00
UDYZ 092300Z 04009KT 9999 NSC 25/07 Q1008 R09/010070 NOSIG
METAR:
2020-08-09 17:00:00
TAF UDYZ 091700Z 0918/1018 02010KT 9999 NSC TEMPO 0918/0922 06020G30KT